Time;durP1;ratioP1;P1;durP2;ratioP2;P2;SDS_P1;SDS_P2;PMS_P1;PMS_P2;Temp;Humidity;BMP_temperature;BMP_pressure;BME280_temperature;BME280_humidity;BME280_pressure;Samples;Min_cycle;Max_cycle;Signal;HPM_P1;HPM_P2
2022/01/05 00:01:03;;;;;;;2.50;0.50;;;18.30;60.10;;;;;;5041548;28;44725;-84
2022/01/05 00:03:31;;;;;;;1.42;0.60;;;19.50;60.10;;;;;;5058433;28;45077;-84
2022/01/05 00:06:00;;;;;;;0.80;0.40;;;18.20;60.50;;;;;;5043472;28;45733;-84
2022/01/05 00:08:27;;;;;;;0.82;0.43;;;19.10;63.80;;;;;;5049500;28;46041;-84
2022/01/05 00:10:56;;;;;;;2.97;0.60;;;18.00;64.30;;;;;;5050977;28;44681;-84
2022/01/05 00:13:24;;;;;;;0.60;0.43;;;18.60;65.60;;;;;;5050768;28;44856;-85
2022/01/05 00:15:51;;;;;;;0.85;0.60;;;18.20;65.70;;;;;;5051068;28;45478;-83
2022/01/05 00:18:18;;;;;;;1.73;0.55;;;18.40;66.30;;;;;;5049961;28;44791;-82
2022/01/05 00:20:46;;;;;;;0.80;0.40;;;18.20;62.10;;;;;;5051485;28;44628;-82
2022/01/05 00:23:21;;;;;;;0.98;0.50;;;18.30;60.30;;;;;;5050282;28;44876;-83
2022/01/05 00:25:51;;;;;;;0.73;0.35;;;18.30;59.90;;;;;;5053989;28;46857;-82
2022/01/05 00:28:21;;;;;;;1.35;0.70;;;18.30;62.70;;;;;;5050575;28;44828;-82
2022/01/05 00:30:48;;;;;;;1.35;0.50;;;19.00;66.60;;;;;;5055027;28;44617;-83
2022/01/05 00:33:21;;;;;;;1.58;0.47;;;18.80;63.90;;;;;;5054431;28;44769;-83
2022/01/05 00:35:49;;;;;;;1.13;0.50;;;20.70;67.70;;;;;;5053706;28;46898;-83
2022/01/05 00:38:17;;;;;;;1.42;0.40;;;18.50;64.40;;;;;;5053811;28;45316;-84
2022/01/05 00:40:46;;;;;;;0.93;0.40;;;18.10;64.00;;;;;;5054675;28;44815;-84
2022/01/05 00:43:16;;;;;;;1.25;0.50;;;18.80;64.80;;;;;;5053992;28;44833;-84
2022/01/05 00:45:46;;;;;;;0.43;0.30;;;18.20;64.70;;;;;;5053458;28;47682;-82
2022/01/05 00:48:14;;;;;;;0.70;0.40;;;18.20;61.70;;;;;;5049981;28;44787;-81
2022/01/05 00:50:42;;;;;;;0.95;0.45;;;18.20;59.10;;;;;;5054172;28;44611;-82
2022/01/05 00:53:14;;;;;;;1.08;0.47;;;19.50;63.60;;;;;;5035784;28;45039;-80
2022/01/05 00:55:41;;;;;;;1.00;0.50;;;18.40;58.10;;;;;;5052267;28;47650;-81
2022/01/05 00:58:14;;;;;;;1.88;0.65;;;18.20;61.20;;;;;;5053403;28;45347;-82
2022/01/05 01:00:44;;;;;;;0.88;0.52;;;18.20;59.40;;;;;;5053347;28;44691;-81
2022/01/05 01:03:15;;;;;;;1.00;0.50;;;18.10;59.90;;;;;;5052995;28;44736;-82
2022/01/05 01:05:44;;;;;;;0.98;0.50;;;19.20;60.20;;;;;;5053802;28;47779;-82
2022/01/05 01:08:11;;;;;;;2.55;0.60;;;18.20;59.40;;;;;;5052867;28;44639;-84
2022/01/05 01:10:39;;;;;;;0.95;0.50;;;18.20;62.90;;;;;;5053797;28;44635;-83
2022/01/05 01:13:08;;;;;;;1.60;0.60;;;18.40;64.20;;;;;;5054334;28;44861;-83
2022/01/05 01:15:37;;;;;;;0.82;0.40;;;18.40;63.50;;;;;;5050343;28;47257;-84
2022/01/05 01:18:04;;;;;;;1.80;0.60;;;18.40;61.70;;;;;;5051025;28;44635;-83
2022/01/05 01:20:36;;;;;;;1.33;0.80;;;18.60;64.00;;;;;;5053865;28;45049;-81
2022/01/05 01:23:06;;;;;;;1.02;0.45;;;18.30;58.40;;;;;;5052825;28;44721;-81
2022/01/05 01:25:34;;;;;;;0.90;0.50;;;18.80;59.50;;;;;;5052247;28;47578;-81
2022/01/05 01:28:02;;;;;;;0.65;0.55;;;18.30;59.60;;;;;;5052998;28;44959;-81
2022/01/05 01:30:33;;;;;;;1.42;0.80;;;18.20;58.50;;;;;;5052828;28;44697;-81
2022/01/05 01:33:02;;;;;;;1.85;0.57;;;18.20;58.80;;;;;;5053570;28;45082;-81
2022/01/05 01:35:29;;;;;;;1.23;0.60;;;18.20;58.60;;;;;;5059083;28;46419;-81
2022/01/05 01:37:58;;;;;;;1.65;0.60;;;18.10;58.70;;;;;;5052590;28;44847;-82
2022/01/05 01:40:30;;;;;;;1.67;0.60;;;18.20;60.50;;;;;;5052303;28;44945;-87
2022/01/05 01:42:58;;;;;;;1.30;0.60;;;18.50;63.40;;;;;;5052360;28;44783;-88
2022/01/05 01:45:28;;;;;;;0.98;0.80;;;20.70;63.20;;;;;;5052320;28;45710;-88
2022/01/05 01:47:56;;;;;;;1.92;0.60;;;18.50;62.90;;;;;;5052255;28;45506;-89
2022/01/05 01:50:26;;;;;;;1.00;0.60;;;18.20;62.80;;;;;;5052621;28;44725;-88
2022/01/05 01:52:54;;;;;;;1.25;0.70;;;18.60;60.20;;;;;;5053003;28;44900;-89
2022/01/05 01:55:26;;;;;;;0.77;0.47;;;18.10;64.50;;;;;;5051758;28;47678;-88
2022/01/05 01:57:57;;;;;;;2.20;0.60;;;18.10;59.60;;;;;;5052045;28;44723;-87
2022/01/05 02:00:24;;;;;;;1.23;0.57;;;18.30;58.20;;;;;;5052070;28;44769;-86
2022/01/05 02:02:53;;;;;;;1.42;0.60;;;19.90;69.60;;;;;;5052170;28;44983;-86
2022/01/05 02:05:22;;;;;;;1.48;0.70;;;18.30;59.60;;;;;;5051290;28;46614;-86
2022/01/05 02:07:50;;;;;;;1.73;0.73;;;17.50;57.00;;;;;;5051475;28;44896;-86
2022/01/05 02:10:18;;;;;;;1.38;0.60;;;18.10;59.00;;;;;;5052229;28;44697;-85
2022/01/05 02:12:48;;;;;;;2.67;0.60;;;18.10;58.40;;;;;;5043447;28;44878;-86
2022/01/05 02:15:16;;;;;;;1.05;0.70;;;18.30;64.50;;;;;;5052016;28;46662;-86
2022/01/05 02:17:56;;;;;;;3.70;0.70;;;19.20;61.00;;;;;;5050629;28;44650;-87
2022/01/05 02:20:26;;;;;;;1.15;0.65;;;19.90;59.60;;;;;;5046727;28;44840;-88
2022/01/05 02:22:56;;;;;;;1.27;0.60;;;18.50;60.00;;;;;;5051909;28;44692;-87
2022/01/05 02:25:27;;;;;;;1.73;0.63;;;18.10;59.20;;;;;;5050926;28;46769;-89
2022/01/05 02:27:57;;;;;;;2.13;0.80;;;18.10;58.80;;;;;;5051317;28;44801;-88
2022/01/05 02:30:27;;;;;;;1.05;0.50;;;18.00;57.90;;;;;;5051938;28;44832;-87
2022/01/05 02:32:55;;;;;;;1.45;0.60;;;18.10;57.20;;;;;;5051888;28;45006;-86
2022/01/05 02:35:23;;;;;;;1.00;0.60;;;18.00;61.10;;;;;;5046829;28;46990;-86
2022/01/05 02:37:55;;;;;;;1.63;0.60;;;18.20;60.50;;;;;;5049934;28;44758;-86
2022/01/05 02:40:24;;;;;;;2.85;0.82;;;18.30;57.30;;;;;;5052054;28;44657;-86
2022/01/05 02:42:54;;;;;;;2.63;0.90;;;18.10;61.20;;;;;;5051226;28;44774;-86
2022/01/05 02:45:22;;;;;;;1.02;0.50;;;18.00;58.70;;;;;;5050533;28;45239;-86
2022/01/05 02:47:51;;;;;;;0.50;0.50;;;18.00;60.10;;;;;;5051443;28;45263;-86
2022/01/05 02:50:20;;;;;;;2.42;0.80;;;18.20;57.60;;;;;;5050921;28;44604;-87
2022/01/05 02:55:31;;;;;;;1.08;0.50;;;18.10;58.60;;;;;;5043758;28;45635;-86
2022/01/05 02:58:00;;;;;;;2.45;0.70;;;20.50;61.00;;;;;;5043504;28;44752;-87
2022/01/05 03:00:27;;;;;;;2.58;1.08;;;20.50;60.10;;;;;;5047049;28;44732;-88
2022/01/05 03:02:54;;;;;;;1.67;0.65;;;18.10;57.50;;;;;;5049130;28;44805;-88
2022/01/05 03:05:21;;;;;;;4.70;0.93;;;18.10;57.40;;;;;;5049929;28;47201;-85
2022/01/05 03:07:56;;;;;;;1.30;0.73;;;18.30;58.30;;;;;;5042433;28;44751;-86
2022/01/05 03:10:38;;;;;;;2.13;0.80;;;18.00;56.20;;;;;;5048387;28;45090;-87
2022/01/05 03:13:06;;;;;;;2.25;0.82;;;20.00;58.60;;;;;;5035476;28;44859;-84
2022/01/05 03:15:35;;;;;;;3.65;0.82;;;18.00;59.70;;;;;;5051503;28;45164;-85
2022/01/05 03:18:03;;;;;;;1.40;0.65;;;20.70;61.00;;;;;;5042002;28;44741;-85
2022/01/05 03:20:34;;;;;;;2.28;0.70;;;18.00;56.00;;;;;;5044749;28;44824;-87
2022/01/05 03:23:08;;;;;;;1.85;0.75;;;18.40;57.70;;;;;;5049817;28;44825;-88
2022/01/05 03:25:37;;;;;;;1.60;0.63;;;17.90;56.60;;;;;;5047596;28;45588;-86
2022/01/05 03:28:05;;;;;;;3.08;0.85;;;18.10;58.80;;;;;;5048855;28;45282;-86
2022/01/05 03:33:19;;;;;;;4.32;0.90;;;18.20;58.60;;;;;;5042436;28;44902;-87
2022/01/05 03:35:48;;;;;;;2.25;0.82;;;17.80;60.50;;;;;;5041057;28;47742;-88
2022/01/05 03:38:17;;;;;;;2.65;0.77;;;18.00;56.00;;;;;;5042071;28;44644;-88
2022/01/05 03:40:47;;;;;;;1.60;0.60;;;18.00;56.00;;;;;;5050058;28;44753;-85
2022/01/05 03:43:15;;;;;;;1.98;0.55;;;18.20;57.40;;;;;;5050161;28;45005;-86
2022/01/05 03:45:45;;;;;;;3.13;0.85;;;20.50;60.30;;;;;;5064253;28;47453;-85
2022/01/05 03:48:14;;;;;;;2.30;0.82;;;19.40;57.70;;;;;;5050336;28;45018;-85
2022/01/05 03:50:41;;;;;;;2.58;0.75;;;18.00;55.50;;;;;;5050746;28;44617;-85
2022/01/05 03:53:10;;;;;;;5.65;0.95;;;18.00;55.90;;;;;;5050241;28;44809;-85
2022/01/05 03:55:42;;;;;;;1.10;0.60;;;18.20;56.00;;;;;;5049788;28;45413;-85
2022/01/05 03:58:13;;;;;;;2.33;0.95;;;18.00;55.50;;;;;;5036674;28;45165;-85
2022/01/05 04:00:43;;;;;;;2.33;0.65;;;18.10;54.90;;;;;;5049522;28;44648;-86
2022/01/05 04:03:10;;;;;;;2.13;0.95;;;18.40;55.50;;;;;;5039802;28;44776;-86
2022/01/05 04:05:38;;;;;;;3.83;0.77;;;19.90;56.90;;;;;;5058989;28;45370;-86
2022/01/05 04:08:06;;;;;;;2.50;0.68;;;18.00;54.70;;;;;;5049870;28;45161;-86
2022/01/05 04:10:33;;;;;;;2.10;0.82;;;18.00;54.20;;;;;;5046295;28;44798;-87
2022/01/05 04:13:02;;;;;;;2.22;0.90;;;17.90;53.10;;;;;;5034267;28;44870;-87
2022/01/05 04:15:31;;;;;;;1.85;0.90;;;18.10;55.90;;;;;;5049093;28;45226;-87
2022/01/05 04:17:58;;;;;;;2.83;1.10;;;18.20;55.50;;;;;;5048962;28;45527;-87
2022/01/05 04:20:25;;;;;;;2.75;0.82;;;18.00;52.90;;;;;;5048682;28;45346;-87
2022/01/05 04:22:52;;;;;;;2.05;0.90;;;17.90;55.50;;;;;;5050728;28;44830;-85
2022/01/05 04:25:21;;;;;;;2.58;0.80;;;17.90;57.40;;;;;;5049102;28;47597;-85
2022/01/05 04:27:49;;;;;;;3.92;0.82;;;19.10;59.50;;;;;;5049476;28;44626;-85
2022/01/05 04:30:16;;;;;;;1.52;0.80;;;17.90;56.00;;;;;;5045921;28;44751;-85
2022/01/05 04:32:45;;;;;;;2.67;0.80;;;18.50;58.20;;;;;;5044828;28;44862;-85
2022/01/05 04:35:14;;;;;;;2.33;0.93;;;17.90;56.00;;;;;;5037389;28;45460;-85
2022/01/05 04:37:42;;;;;;;4.07;1.30;;;19.10;55.40;;;;;;5036589;28;44668;-85
2022/01/05 04:40:11;;;;;;;1.60;0.70;;;17.70;54.20;;;;;;5049002;28;44638;-85
2022/01/05 04:42:39;;;;;;;3.63;0.70;;;18.20;53.90;;;;;;5033525;28;44892;-85
2022/01/05 04:45:10;;;;;;;1.70;0.75;;;17.80;53.30;;;;;;5050224;28;47668;-85
2022/01/05 04:47:37;;;;;;;2.08;0.80;;;17.90;52.60;;;;;;5049828;28;46009;-85
2022/01/05 04:50:07;;;;;;;3.20;1.05;;;17.90;52.40;;;;;;5049502;28;44711;-86
2022/01/05 04:52:34;;;;;;;1.80;0.90;;;18.00;52.50;;;;;;5050627;28;44818;-86
2022/01/05 04:55:02;;;;;;;1.92;1.02;;;18.00;54.80;;;;;;5046908;28;45146;-87
2022/01/05 04:57:31;;;;;;;3.58;1.05;;;17.90;51.60;;;;;;5041532;28;45142;-87
2022/01/05 04:59:58;;;;;;;3.83;0.90;;;17.90;52.40;;;;;;5049520;28;44789;-87
2022/01/05 05:02:26;;;;;;;4.10;1.27;;;18.00;53.90;;;;;;5050154;28;44722;-86
2022/01/05 05:04:58;;;;;;;3.85;1.13;;;17.90;54.60;;;;;;5049231;28;45435;-87
2022/01/05 05:07:32;;;;;;;3.42;1.08;;;19.40;54.50;;;;;;5048849;28;45053;-86
2022/01/05 05:09:59;;;;;;;4.63;0.98;;;19.90;55.20;;;;;;5034092;28;44810;-87
2022/01/05 05:12:28;;;;;;;3.13;1.20;;;19.00;56.60;;;;;;5053967;28;44703;-87
2022/01/05 05:14:58;;;;;;;2.85;0.98;;;18.00;55.50;;;;;;5036400;28;45983;-88
2022/01/05 05:28:15;;;;;;;2.30;0.90;;;17.90;54.20;;;;;;5072251;28;44728;-88
2022/01/05 05:30:45;;;;;;;5.18;1.23;;;18.10;52.30;;;;;;5057697;28;45295;-87
2022/01/05 05:33:13;;;;;;;3.22;0.90;;;17.90;54.00;;;;;;5064509;28;45389;-87
2022/01/05 05:35:41;;;;;;;4.22;1.30;;;17.90;52.40;;;;;;5044251;28;45513;-87
2022/01/05 05:38:12;;;;;;;4.03;1.08;;;17.90;52.30;;;;;;5039034;28;45387;-87
2022/01/05 05:40:44;;;;;;;5.05;1.17;;;17.90;50.30;;;;;;5067269;28;45319;-87
2022/01/05 05:43:16;;;;;;;2.75;1.02;;;17.90;52.90;;;;;;5061742;28;45184;-86
2022/01/05 05:45:45;;;;;;;2.97;1.15;;;17.90;50.20;;;;;;5051500;28;45501;-88
2022/01/05 05:48:18;;;;;;;4.15;1.08;;;17.90;50.10;;;;;;5029007;28;44914;-87
2022/01/05 05:50:53;;;;;;;2.92;1.17;;;17.90;49.90;;;;;;5057107;28;45213;-88
2022/01/05 05:53:24;;;;;;;3.45;1.02;;;17.90;50.40;;;;;;5065060;28;45252;-88
2022/01/05 05:55:53;;;;;;;2.53;0.82;;;18.10;49.20;;;;;;5053612;28;45490;-88
2022/01/05 05:58:33;;;;;;;2.13;0.90;;;17.90;49.70;;;;;;5050887;28;45149;-88
2022/01/05 06:01:04;;;;;;;3.10;1.10;;;18.40;50.40;;;;;;5051950;28;45209;-88
2022/01/05 06:03:35;;;;;;;3.60;1.15;;;17.90;52.70;;;;;;5036283;28;45415;-87
2022/01/05 06:06:04;;;;;;;1.77;0.88;;;17.90;52.70;;;;;;5051292;28;46572;-89
2022/01/05 06:08:32;;;;;;;2.90;0.90;;;17.80;52.50;;;;;;5053867;28;45002;-90
2022/01/05 06:11:09;;;;;;;2.80;1.20;;;17.90;53.50;;;;;;5064813;28;44847;-90
2022/01/05 06:13:49;;;;;;;4.13;1.30;;;18.50;56.20;;;;;;5060294;28;44870;-89
2022/01/05 06:16:26;;;;;;;2.55;0.85;;;17.70;52.50;;;;;;5050143;28;47386;-89
2022/01/05 06:19:03;;;;;;;3.05;1.10;;;18.00;52.20;;;;;;5061725;28;45134;-89
2022/01/05 06:25:01;;;;;;;4.07;1.00;;;17.90;52.20;;;;;;5071291;28;44767;-89
2022/01/05 06:27:48;;;;;;;3.55;1.30;;;18.10;52.20;;;;;;5061363;28;46775;-88
2022/01/05 06:33:36;;;;;;;3.80;0.90;;;17.90;55.90;;;;;;5063743;27;44842;-88
2022/01/05 06:36:27;;;;;;;3.55;1.25;;;17.90;50.00;;;;;;5074143;27;44854;-89
2022/01/05 06:42:32;;;;;;;2.75;1.10;;;18.10;50.70;;;;;;5053045;28;44689;-88
2022/01/05 06:48:26;;;;;;;5.97;1.80;;;17.80;49.30;;;;;;5063539;28;44811;-89
2022/01/05 06:51:00;;;;;;;2.63;1.00;;;15.70;49.20;;;;;;5059241;28;47052;-89
2022/01/05 07:02:06;;;;;;;2.60;1.08;;;19.70;49.60;;;;;;5071739;28;45689;-90
2022/01/05 07:05:07;;;;;;;2.30;0.98;;;18.10;50.70;;;;;;5051672;28;44834;-89
2022/01/05 07:21:21;;;;;;;2.45;1.08;;;18.10;48.50;;;;;;5057707;28;44703;-88
2022/01/05 07:34:34;;;;;;;3.60;1.02;;;17.60;51.40;;;;;;5090052;27;44768;-90
2022/01/05 07:52:45;;;;;;;2.65;0.93;;;17.80;52.90;;;;;;3947823;22;45182;-88
2022/01/05 07:55:27;;;;;;;3.92;1.10;;;18.10;52.90;;;;;;5062717;28;45129;-88
2022/01/05 08:00:47;;;;;;;2.97;1.10;;;17.80;52.00;;;;;;5062957;28;44981;-88
2022/01/05 08:03:14;;;;;;;7.05;1.50;;;17.90;52.50;;;;;;5045376;28;45860;-88
2022/01/05 08:05:43;;;;;;;2.47;0.90;;;20.00;55.10;;;;;;5054919;28;45247;-88
2022/01/05 08:08:12;;;;;;;3.67;1.25;;;17.90;53.40;;;;;;5069230;28;44745;-89
2022/01/05 08:10:41;;;;;;;2.42;0.93;;;17.90;56.00;;;;;;5053645;28;44961;-89
2022/01/05 08:13:10;;;;;;;34.35;3.25;;;18.00;54.30;;;;;;5045594;28;45686;-79
2022/01/05 08:15:37;;;;;;;6.30;1.50;;;17.90;52.80;;;;;;5060402;28;45592;-87
2022/01/05 08:18:06;;;;;;;9.13;1.13;;;17.90;53.90;;;;;;5038962;28;45360;-88
2022/01/05 08:20:34;;;;;;;6.82;1.27;;;18.10;60.80;;;;;;5026100;28;45291;-87
2022/01/05 08:23:10;;;;;;;4.47;1.35;;;20.50;61.90;;;;;;5054018;28;47250;-88
2022/01/05 08:25:41;;;;;;;3.90;1.70;;;18.00;55.40;;;;;;5038856;28;45190;-86
2022/01/05 08:28:34;;;;;;;5.10;1.23;;;16.50;52.40;;;;;;5051101;28;45294;-86
2022/01/05 08:31:02;;;;;;;6.63;1.40;;;17.80;54.80;;;;;;5058087;28;45142;-88
2022/01/05 08:33:31;;;;;;;4.68;1.20;;;17.80;53.80;;;;;;5054939;28;45338;-86
2022/01/05 08:35:58;;;;;;;4.43;1.20;;;16.90;54.40;;;;;;5038104;28;45100;-86
2022/01/05 08:38:26;;;;;;;4.38;1.58;;;17.90;54.20;;;;;;5046951;28;45414;-85
2022/01/05 08:40:53;;;;;;;5.50;1.20;;;17.90;52.30;;;;;;5047677;28;45209;-85
2022/01/05 08:43:22;;;;;;;4.57;1.23;;;17.90;51.70;;;;;;5056692;28;45306;-85
2022/01/05 08:45:50;;;;;;;4.18;1.10;;;17.90;51.50;;;;;;5049327;28;46633;-85
2022/01/05 08:48:17;;;;;;;7.43;1.67;;;17.90;51.20;;;;;;5044850;28;45355;-84
2022/01/05 08:50:44;;;;;;;4.50;1.48;;;17.90;50.70;;;;;;5056669;28;45447;-84
2022/01/05 08:53:11;;;;;;;11.63;1.55;;;17.90;49.20;;;;;;5046682;28;45788;-84
2022/01/05 08:55:44;;;;;;;2.55;1.35;;;17.90;50.20;;;;;;5057585;28;45321;-84
2022/01/05 08:58:16;;;;;;;3.30;1.30;;;17.90;49.90;;;;;;5063032;28;45203;-84
2022/01/05 09:00:48;;;;;;;4.28;1.30;;;17.90;48.80;;;;;;5025408;28;45679;-83
2022/01/05 09:03:18;;;;;;;3.05;1.30;;;17.90;49.40;;;;;;5042310;28;46465;-84
2022/01/05 09:05:47;;;;;;;3.65;1.55;;;17.90;49.30;;;;;;5060231;28;45184;-84
2022/01/05 09:08:20;;;;;;;3.35;1.38;;;17.90;49.30;;;;;;5045133;28;45265;-85
2022/01/05 09:10:50;;;;;;;2.70;1.10;;;17.90;48.10;;;;;;5045316;28;45125;-84
2022/01/05 09:13:19;;;;;;;4.28;1.17;;;18.00;49.00;;;;;;5063174;28;47850;-84
2022/01/05 09:15:51;;;;;;;3.70;1.25;;;17.90;50.00;;;;;;5061957;28;45093;-85
2022/01/05 09:18:21;;;;;;;2.05;1.15;;;17.90;49.20;;;;;;5061288;28;45282;-85
2022/01/05 09:20:49;;;;;;;3.92;1.10;;;17.90;49.60;;;;;;5042338;28;45471;-84
2022/01/05 09:23:17;;;;;;;2.85;1.25;;;17.90;49.70;;;;;;5041742;28;48251;-85
2022/01/05 09:25:44;;;;;;;2.65;1.15;;;17.90;49.40;;;;;;5057491;28;45243;-85
2022/01/05 09:28:12;;;;;;;2.05;0.90;;;17.90;49.50;;;;;;5060860;28;45141;-85
2022/01/05 09:30:43;;;;;;;2.13;1.17;;;17.90;48.10;;;;;;5061751;28;45149;-84
2022/01/05 09:33:14;;;;;;;2.72;0.90;;;17.90;48.50;;;;;;5062114;28;46678;-85
2022/01/05 09:35:45;;;;;;;3.63;1.23;;;17.90;48.20;;;;;;5057735;28;45508;-85
2022/01/05 09:38:34;;;;;;;3.10;1.20;;;17.10;47.40;;;;;;5035526;28;44790;-85
2022/01/05 09:43:53;;;;;;;3.05;1.30;;;17.90;47.70;;;;;;5039688;28;45362;-84
2022/01/05 09:46:34;;;;;;;3.63;1.27;;;17.90;47.70;;;;;;5041891;28;45176;-85
2022/01/05 09:49:13;;;;;;;2.20;1.00;;;17.90;47.40;;;;;;5030776;28;45166;-85
2022/01/05 09:51:43;;;;;;;3.60;1.30;;;17.90;48.00;;;;;;5056872;28;45218;-85
2022/01/05 09:54:12;;;;;;;2.45;1.00;;;17.90;47.90;;;;;;5045207;28;47756;-84
2022/01/05 09:56:43;;;;;;;4.18;1.10;;;17.90;48.10;;;;;;5041368;28;45149;-85
2022/01/05 09:59:13;;;;;;;2.97;1.10;;;17.90;47.70;;;;;;5040946;28;44788;-84
2022/01/05 10:01:41;;;;;;;4.70;1.33;;;17.90;48.10;;;;;;5050847;28;45292;-84
2022/01/05 10:04:13;;;;;;;2.55;1.10;;;17.90;49.70;;;;;;5045025;28;46165;-85
2022/01/05 10:06:41;;;;;;;2.95;1.00;;;17.90;48.40;;;;;;5044163;28;45503;-84
2022/01/05 10:09:11;;;;;;;3.22;1.45;;;17.90;48.70;;;;;;5044574;28;45697;-84
2022/01/05 10:11:40;;;;;;;3.83;1.23;;;17.90;49.00;;;;;;5061011;28;45042;-85
2022/01/05 10:14:11;;;;;;;2.05;1.10;;;17.90;48.90;;;;;;5055431;28;47671;-84
2022/01/05 10:16:43;;;;;;;2.25;1.10;;;18.00;48.50;;;;;;5041202;28;45152;-84
2022/01/05 10:19:27;;;;;;;2.38;1.25;;;18.00;48.60;;;;;;5052655;28;45182;-84
2022/01/05 10:21:56;;;;;;;4.38;1.35;;;17.90;48.70;;;;;;5061095;28;45258;-83
2022/01/05 10:24:41;;;;;;;3.28;1.00;;;18.00;48.00;;;;;;5060154;28;48204;-83
2022/01/05 10:27:08;;;;;;;2.20;0.85;;;18.00;47.90;;;;;;5053539;28;45144;-83
2022/01/05 10:29:35;;;;;;;2.60;1.10;;;18.00;46.20;;;;;;5059267;28;45102;-82
2022/01/05 10:32:08;;;;;;;2.15;1.10;;;17.90;45.90;;;;;;5042890;28;44810;-85
2022/01/05 10:34:37;;;;;;;2.95;0.88;;;17.90;47.40;;;;;;5046074;28;47367;-82
2022/01/05 10:37:08;;;;;;;3.65;1.23;;;17.90;47.40;;;;;;5043392;28;45284;-83
2022/01/05 10:39:43;;;;;;;4.35;1.40;;;18.00;49.00;;;;;;5049477;28;45068;-86
2022/01/05 10:42:15;;;;;;;4.25;1.20;;;18.20;49.30;;;;;;5045019;28;45154;-85
2022/01/05 10:44:53;;;;;;;4.13;1.42;;;18.00;47.30;;;;;;5049761;28;46340;-85
2022/01/05 10:47:20;;;;;;;5.60;1.38;;;18.00;47.40;;;;;;5045217;28;45396;-86
2022/01/05 10:50:11;;;;;;;4.20;1.00;;;19.40;56.00;;;;;;5055384;28;45214;-85
2022/01/05 10:52:44;;;;;;;2.25;1.00;;;18.00;48.90;;;;;;5041949;28;45222;-85
2022/01/05 10:55:19;;;;;;;3.20;1.00;;;18.00;50.00;;;;;;5047311;28;47501;-84
2022/01/05 10:58:10;;;;;;;4.05;1.20;;;17.90;47.70;;;;;;5045212;28;45310;-86
2022/01/05 11:00:43;;;;;;;3.65;1.13;;;18.20;47.90;;;;;;5037167;28;45222;-84
2022/01/05 11:03:28;;;;;;;3.85;1.27;;;17.90;47.70;;;;;;5043831;28;45166;-84
2022/01/05 11:06:22;;;;;;;2.72;1.23;;;18.00;48.30;;;;;;5048958;28;47250;-85
2022/01/05 11:08:52;;;;;;;4.35;1.23;;;18.00;48.10;;;;;;5049055;28;45097;-86
2022/01/05 11:11:40;;;;;;;2.92;1.10;;;18.00;47.80;;;;;;5057747;28;45286;-86
2022/01/05 11:14:09;;;;;;;2.55;1.17;;;17.90;47.40;;;;;;5058800;28;45171;-86
2022/01/05 11:16:39;;;;;;;5.13;1.40;;;17.90;48.00;;;;;;5051211;28;47973;-86
2022/01/05 11:19:16;;;;;;;2.60;1.10;;;17.90;51.20;;;;;;5040325;28;45166;-86
2022/01/05 11:22:06;;;;;;;4.18;1.48;;;18.70;48.70;;;;;;5055358;28;45113;-85
2022/01/05 11:24:36;;;;;;;2.97;0.98;;;20.30;49.60;;;;;;5048208;28;45450;-86
2022/01/05 11:27:07;;;;;;;4.30;1.20;;;17.90;48.00;;;;;;5042066;28;45668;-85
2022/01/05 11:29:39;;;;;;;3.45;1.20;;;16.00;49.30;;;;;;5046338;28;45286;-86
2022/01/05 11:32:12;;;;;;;2.30;1.05;;;18.20;51.40;;;;;;5041783;28;45285;-86
2022/01/05 11:34:45;;;;;;;4.72;1.40;;;18.00;47.70;;;;;;5053159;28;45466;-86
2022/01/05 11:37:15;;;;;;;3.00;1.17;;;19.60;56.90;;;;;;5039170;28;47297;-86
2022/01/05 11:39:44;;;;;;;3.25;1.23;;;17.90;53.40;;;;;;5053099;28;45470;-85
2022/01/05 11:42:14;;;;;;;2.92;1.20;;;18.30;54.70;;;;;;5046312;28;45279;-85
2022/01/05 11:44:51;;;;;;;2.72;1.10;;;18.90;55.20;;;;;;5047113;28;45354;-86
2022/01/05 11:47:23;;;;;;;2.45;1.08;;;19.70;54.50;;;;;;5043744;28;45557;-85
2022/01/05 11:49:51;;;;;;;2.67;0.90;;;18.00;49.80;;;;;;5053473;28;45298;-86
2022/01/05 11:52:55;;;;;;;3.22;1.10;;;18.70;53.40;;;;;;5020563;28;45339;-85
2022/01/05 11:55:30;;;;;;;2.95;1.00;;;18.20;49.20;;;;;;5052651;28;45540;-86
2022/01/05 11:58:18;;;;;;;4.47;1.23;;;18.00;53.90;;;;;;5046793;28;47624;-86
2022/01/05 12:00:52;;;;;;;3.35;1.00;;;18.20;49.90;;;;;;5051959;28;45478;-86
2022/01/05 12:07:07;;;;;;;2.75;1.08;;;17.90;48.30;;;;;;5045657;28;45884;-86
2022/01/05 12:09:40;;;;;;;2.90;1.05;;;17.90;48.60;;;;;;5057088;28;47312;-86
2022/01/05 12:12:32;;;;;;;2.20;1.08;;;18.20;48.80;;;;;;5055448;28;45286;-87
2022/01/05 12:15:03;;;;;;;4.80;1.45;;;17.90;52.50;;;;;;5057460;28;45299;-86
2022/01/05 12:17:35;;;;;;;3.50;1.20;;;20.30;53.20;;;;;;5050552;28;45157;-87
2022/01/05 12:23:24;;;;;;;3.33;1.13;;;18.50;48.90;;;;;;5054663;28;44751;-87
2022/01/05 12:26:34;;;;;;;3.03;1.20;;;17.90;49.30;;;;;;5052402;28;45271;-87
2022/01/05 12:29:15;;;;;;;2.38;1.05;;;18.00;49.20;;;;;;5057715;28;44831;-87
2022/01/05 12:35:07;;;;;;;3.75;1.30;;;18.10;49.20;;;;;;5066177;28;44789;-86
2022/01/05 12:37:51;;;;;;;3.63;1.10;;;18.30;54.70;;;;;;5062911;28;45250;-87
2022/01/05 12:40:34;;;;;;;2.63;1.10;;;18.00;52.20;;;;;;5044151;28;44786;-87
2022/01/05 12:46:20;;;;;;;4.30;1.50;;;17.90;50.10;;;;;;5063721;28;44598;-88
2022/01/05 12:55:15;;;;;;;6.20;1.50;;;15.80;49.10;;;;;;5049469;28;45593;-88
2022/01/05 12:58:03;;;;;;;3.28;1.20;;;17.80;50.10;;;;;;5052174;28;45157;-87
2022/01/05 13:03:40;;;;;;;4.35;1.50;;;18.30;54.20;;;;;;5058014;28;45222;-88
2022/01/05 13:09:38;;;;;;;3.10;1.40;;;18.30;52.90;;;;;;5057104;28;45416;-88
2022/01/05 13:12:17;;;;;;;4.68;1.23;;;19.00;53.20;;;;;;5049374;28;44991;-88
2022/01/05 13:21:14;;;;;;;3.53;1.23;;;18.80;56.50;;;;;;5065679;28;45393;-88
2022/01/05 13:29:46;;;;;;;4.45;1.27;;;20.10;54.00;;;;;;5044016;28;45761;-87
2022/01/05 13:32:32;;;;;;;3.53;1.30;;;19.70;53.10;;;;;;5055351;28;45239;-88
2022/01/05 13:38:12;;;;;;;5.32;1.70;;;18.30;50.60;;;;;;5049661;28;44833;-89
2022/01/05 13:40:42;;;;;;;3.00;1.30;;;20.70;55.90;;;;;;5053485;28;47480;-87
2022/01/05 13:43:13;;;;;;;2.95;1.42;;;20.40;56.20;;;;;;5045166;28;45145;-82
2022/01/05 13:45:45;;;;;;;4.05;1.40;;;20.30;52.70;;;;;;5043428;28;45312;-85
2022/01/05 13:48:14;;;;;;;3.50;1.33;;;20.40;52.80;;;;;;5039513;28;45784;-86
2022/01/05 13:50:48;;;;;;;2.78;1.10;;;20.40;54.40;;;;;;5042540;28;48361;-85
2022/01/05 13:53:58;;;;;;;3.08;1.10;;;20.50;53.30;;;;;;5051579;28;45188;-85
2022/01/05 13:59:42;;;;;;;6.68;1.45;;;20.10;52.20;;;;;;5045232;28;45228;-86
2022/01/05 14:02:10;;;;;;;3.60;1.40;;;20.70;53.10;;;;;;5042170;28;47554;-86
2022/01/05 14:05:05;;;;;;;2.53;1.08;;;20.70;53.80;;;;;;5045733;28;45261;-86
2022/01/05 14:07:33;;;;;;;4.03;1.55;;;20.80;52.50;;;;;;5041312;28;45257;-86
2022/01/05 14:10:16;;;;;;;3.35;1.25;;;20.80;52.10;;;;;;5036316;28;45488;-79
2022/01/05 14:12:46;;;;;;;5.03;1.50;;;20.70;51.60;;;;;;5038984;28;47691;-77
2022/01/05 14:15:16;;;;;;;20.67;1.95;;;20.80;51.50;;;;;;5042313;28;45172;-83
2022/01/05 14:18:14;;;;;;;7.75;1.65;;;20.90;52.00;;;;;;5041559;28;45520;-81
2022/01/05 14:20:55;;;;;;;7.53;1.58;;;20.90;52.70;;;;;;4977118;28;45371;-85
2022/01/05 14:23:23;;;;;;;16.45;2.88;;;20.90;53.40;;;;;;5014812;28;46767;-79
2022/01/05 14:25:59;;;;;;;18.35;2.28;;;20.90;54.30;;;;;;5037983;28;45350;-78
2022/01/05 14:28:31;;;;;;;8.57;2.58;;;21.00;54.30;;;;;;5042176;28;45343;-82
2022/01/05 14:31:11;;;;;;;27.02;2.55;;;21.10;55.00;;;;;;5044294;28;45392;-84
2022/01/05 14:33:41;;;;;;;17.55;3.28;;;21.10;54.40;;;;;;5042692;28;47901;-74
2022/01/05 14:36:24;;;;;;;12.27;2.67;;;21.20;53.80;;;;;;5044486;28;46121;-85
2022/01/05 14:39:00;;;;;;;20.52;3.03;;;21.10;53.90;;;;;;5039719;28;45239;-79
2022/01/05 14:41:34;;;;;;;11.75;2.88;;;21.00;53.60;;;;;;5046911;28;45493;-78
2022/01/05 14:44:14;;;;;;;10.60;2.33;;;21.00;55.20;;;;;;5043078;28;46929;-79
2022/01/05 14:46:49;;;;;;;22.85;3.30;;;21.00;55.20;;;;;;5037514;28;45299;-77
2022/01/05 14:49:19;;;;;;;34.47;3.40;;;21.10;57.70;;;;;;5044417;28;45443;-76
2022/01/05 14:51:50;;;;;;;69.82;4.53;;;21.00;56.10;;;;;;5036134;28;45279;-77
2022/01/05 14:54:18;;;;;;;24.38;2.88;;;21.10;56.80;;;;;;5043496;28;47375;-81
2022/01/05 14:56:46;;;;;;;14.63;2.83;;;21.00;55.20;;;;;;5037681;28;45339;-79
2022/01/05 14:59:14;;;;;;;13.55;2.17;;;20.90;54.70;;;;;;5043530;28;45386;-78
2022/01/05 15:01:43;;;;;;;29.63;4.47;;;20.60;53.90;;;;;;5042065;28;45290;-79
2022/01/05 15:04:13;;;;;;;30.15;3.83;;;20.40;56.00;;;;;;5042959;28;45366;-79
2022/01/05 15:06:40;;;;;;;14.00;2.17;;;20.30;56.10;;;;;;5030139;28;45240;-79
2022/01/05 15:09:10;;;;;;;14.43;2.30;;;20.10;55.90;;;;;;5035619;28;45298;-78
2022/01/05 15:11:37;;;;;;;16.63;2.75;;;20.00;55.70;;;;;;5041316;28;45640;-78
2022/01/05 15:14:04;;;;;;;17.98;2.42;;;19.90;55.40;;;;;;5039593;28;47470;-79
2022/01/05 15:16:32;;;;;;;21.20;2.33;;;19.70;55.30;;;;;;5038235;28;45240;-79
2022/01/05 15:19:03;;;;;;;8.20;2.47;;;19.70;55.10;;;;;;5027196;28;45501;-78